createdAt,value
2022-10-06T00:01:19.734Z,9.73
2022-10-06T00:03:47.426Z,9.73
2022-10-06T00:06:16.934Z,9.69
2022-10-06T00:08:47.001Z,9.71
2022-10-06T00:11:16.159Z,9.72
2022-10-06T00:13:43.661Z,9.70
2022-10-06T00:16:17.471Z,9.72
2022-10-06T00:18:46.054Z,9.71
2022-10-06T00:21:13.886Z,9.73
2022-10-06T00:23:41.795Z,9.68
2022-10-06T00:26:17.014Z,9.65
2022-10-06T00:28:50.214Z,9.57
2022-10-06T00:31:22.360Z,9.52
2022-10-06T00:33:52.116Z,9.53
2022-10-06T00:36:21.146Z,9.53
2022-10-06T00:38:51.020Z,9.49
2022-10-06T00:41:20.748Z,9.47
2022-10-06T00:43:53.670Z,9.45
2022-10-06T00:46:45.177Z,9.42
2022-10-06T00:49:18.933Z,9.39
2022-10-06T00:51:53.883Z,9.37
2022-10-06T00:54:21.866Z,9.32
2022-10-06T00:56:49.494Z,9.21
2022-10-06T00:59:20.880Z,9.13
2022-10-06T01:02:06.965Z,9.05
2022-10-06T01:04:37.871Z,8.96
2022-10-06T01:07:06.139Z,8.94
2022-10-06T01:09:33.849Z,8.89
2022-10-06T01:12:05.668Z,8.83
2022-10-06T01:14:33.934Z,8.79
2022-10-06T01:17:08.606Z,8.78
2022-10-06T01:19:50.380Z,8.72
2022-10-06T01:22:21.309Z,8.63
2022-10-06T01:24:52.555Z,8.57
2022-10-06T01:27:21.725Z,8.52
2022-10-06T01:29:53.719Z,8.44
2022-10-06T01:32:25.099Z,8.43
2022-10-06T01:34:54.945Z,8.40
2022-10-06T01:37:22.435Z,8.37
2022-10-06T01:39:49.957Z,8.39
2022-10-06T01:42:17.705Z,8.36
2022-10-06T01:44:45.178Z,8.32
2022-10-06T01:47:12.670Z,8.38
2022-10-06T01:49:40.572Z,8.35
2022-10-06T01:52:08.518Z,8.30
2022-10-06T01:54:36.240Z,8.32
2022-10-06T01:57:06.795Z,8.34
2022-10-06T01:59:34.537Z,8.29
2022-10-06T02:02:02.540Z,8.31
2022-10-06T02:04:32.245Z,8.27
2022-10-06T02:07:02.532Z,8.22
2022-10-06T02:09:32.361Z,8.21
2022-10-06T02:11:59.925Z,8.20
2022-10-06T02:14:27.446Z,8.15
2022-10-06T02:16:54.933Z,8.13
2022-10-06T02:19:22.427Z,8.02
2022-10-06T02:21:49.925Z,8.01
2022-10-06T02:24:20.925Z,8.03
2022-10-06T02:26:50.872Z,7.99
2022-10-06T02:29:18.350Z,7.96
2022-10-06T02:31:45.858Z,7.96
2022-10-06T02:34:14.114Z,7.95
2022-10-06T02:36:43.991Z,7.89
2022-10-06T02:39:11.903Z,7.91
2022-10-06T02:41:39.451Z,7.90
2022-10-06T02:44:07.007Z,7.89
2022-10-06T02:46:34.792Z,7.85
2022-10-06T02:49:02.374Z,7.84
2022-10-06T02:51:31.243Z,7.85
2022-10-06T02:53:58.840Z,7.86
2022-10-06T02:56:26.999Z,7.83
2022-10-06T02:58:55.597Z,7.83
2022-10-06T03:01:26.503Z,7.79
2022-10-06T03:03:54.785Z,7.78
2022-10-06T03:06:27.893Z,7.73
2022-10-06T03:08:56.826Z,7.70
2022-10-06T03:11:27.857Z,7.68
2022-10-06T03:13:56.071Z,7.66
2022-10-06T03:16:46.013Z,7.61
2022-10-06T03:19:13.516Z,7.54
2022-10-06T03:21:45.490Z,7.57
2022-10-06T03:24:13.436Z,7.55
2022-10-06T03:26:43.974Z,7.53
2022-10-06T03:29:16.027Z,7.49
2022-10-06T03:31:44.208Z,7.45
2022-10-06T03:34:13.449Z,7.43
2022-10-06T03:36:40.997Z,7.46
2022-10-06T03:39:08.941Z,7.45
2022-10-06T03:41:38.961Z,7.42
2022-10-06T03:44:06.661Z,7.41
2022-10-06T03:46:35.858Z,7.43
2022-10-06T03:49:04.225Z,7.43
2022-10-06T03:51:34.725Z,7.44
2022-10-06T03:54:02.634Z,7.42
2022-10-06T03:56:37.043Z,7.43
2022-10-06T03:59:13.590Z,7.42
2022-10-06T04:01:46.605Z,7.41
2022-10-06T04:04:14.798Z,7.44
2022-10-06T04:06:44.879Z,7.39
2022-10-06T04:09:15.909Z,7.45
2022-10-06T04:11:44.920Z,7.47
2022-10-06T04:14:19.172Z,7.46
2022-10-06T04:16:51.655Z,7.49
2022-10-06T04:19:19.924Z,7.47
2022-10-06T04:21:48.579Z,7.47
2022-10-06T04:24:18.420Z,7.45
2022-10-06T04:26:48.785Z,7.40
2022-10-06T04:29:16.853Z,7.36
2022-10-06T04:31:46.980Z,7.35
2022-10-06T04:34:14.760Z,7.39
2022-10-06T04:36:43.497Z,7.40
2022-10-06T04:39:13.228Z,7.35
2022-10-06T04:41:46.635Z,7.33
2022-10-06T04:44:14.322Z,7.33
2022-10-06T04:46:43.738Z,7.31
2022-10-06T04:49:19.549Z,7.26
2022-10-06T04:51:49.682Z,7.30
2022-10-06T04:54:18.660Z,7.30
2022-10-06T04:56:46.435Z,7.31
2022-10-06T04:59:14.209Z,7.31
2022-10-06T05:01:44.232Z,7.31
2022-10-06T05:04:11.946Z,7.34
2022-10-06T05:06:41.733Z,7.37
2022-10-06T05:09:12.054Z,7.42
2022-10-06T05:11:42.803Z,7.43
2022-10-06T05:14:10.391Z,7.49
2022-10-06T05:16:40.529Z,7.55
2022-10-06T05:19:08.298Z,7.58
2022-10-06T05:21:36.511Z,7.64
2022-10-06T05:24:04.241Z,7.72
2022-10-06T05:26:33.802Z,7.79
2022-10-06T05:29:01.832Z,7.87
2022-10-06T05:31:35.156Z,7.98
2022-10-06T05:34:02.779Z,8.05
2022-10-06T05:36:32.716Z,8.16
2022-10-06T05:39:00.624Z,8.31
2022-10-06T05:41:33.201Z,8.40
2022-10-06T05:44:01.082Z,8.56
2022-10-06T05:46:35.531Z,8.68
2022-10-06T05:49:06.052Z,8.83
2022-10-06T05:51:35.586Z,8.98
2022-10-06T05:54:03.935Z,9.13
2022-10-06T05:56:34.018Z,9.25
2022-10-06T05:59:02.355Z,9.42
2022-10-06T06:01:39.974Z,9.57
2022-10-06T06:04:10.598Z,9.69
2022-10-06T06:06:50.549Z,9.83
2022-10-06T06:09:22.657Z,9.96
2022-10-06T06:11:52.730Z,10.10
2022-10-06T06:14:42.777Z,10.21
2022-10-06T06:17:09.513Z,10.30
2022-10-06T06:19:37.021Z,10.40
2022-10-06T06:22:04.699Z,10.54
2022-10-06T06:24:32.172Z,10.56
2022-10-06T06:27:01.890Z,10.61
2022-10-06T06:29:29.373Z,10.64
2022-10-06T06:32:00.333Z,10.73
2022-10-06T06:34:29.052Z,10.79
2022-10-06T06:37:03.591Z,10.82
2022-10-06T06:39:35.238Z,10.82
2022-10-06T06:42:05.121Z,10.88
2022-10-06T06:44:32.858Z,10.88
2022-10-06T06:47:01.355Z,10.95
2022-10-06T06:49:33.758Z,10.98
2022-10-06T06:52:05.168Z,11.07
2022-10-06T06:54:32.649Z,11.20
2022-10-06T06:57:00.511Z,11.35
2022-10-06T06:59:28.020Z,11.56
2022-10-06T07:01:57.641Z,11.74
2022-10-06T07:04:25.226Z,12.00
2022-10-06T07:06:58.308Z,12.48
2022-10-06T07:09:27.119Z,13.03
2022-10-06T07:11:55.434Z,13.61
2022-10-06T07:14:24.597Z,14.07
2022-10-06T07:17:10.256Z,14.35
2022-10-06T07:19:55.301Z,14.57
2022-10-06T07:22:42.864Z,14.94
2022-10-06T07:25:36.719Z,15.50
2022-10-06T07:28:07.740Z,16.39
2022-10-06T07:30:40.465Z,17.47
2022-10-06T07:33:08.632Z,18.72
2022-10-06T07:35:42.524Z,18.78
2022-10-06T07:38:10.068Z,19.75
2022-10-06T07:40:42.726Z,21.16
2022-10-06T07:43:20.731Z,22.04
2022-10-06T07:45:49.595Z,21.68
2022-10-06T07:48:23.446Z,21.59
2022-10-06T07:50:53.640Z,22.69
2022-10-06T07:53:28.565Z,23.10
2022-10-06T07:56:04.500Z,23.07
2022-10-06T07:58:32.006Z,23.85
2022-10-06T08:01:07.109Z,24.37
2022-10-06T08:03:37.355Z,24.41
2022-10-06T08:06:05.183Z,23.02
2022-10-06T08:08:36.947Z,23.45
2022-10-06T08:11:08.586Z,24.09
2022-10-06T08:13:40.393Z,24.94
2022-10-06T08:16:11.503Z,24.68
2022-10-06T08:18:46.491Z,23.90
2022-10-06T08:21:17.576Z,25.03
2022-10-06T08:23:46.741Z,25.62
2022-10-06T08:26:18.817Z,25.75
2022-10-06T08:28:51.494Z,24.13
2022-10-06T08:31:21.669Z,24.41
2022-10-06T08:33:49.704Z,25.51
2022-10-06T08:36:21.736Z,24.41
2022-10-06T08:38:50.432Z,24.45
2022-10-06T08:41:39.678Z,23.78
2022-10-06T08:44:21.739Z,22.95
2022-10-06T08:46:54.826Z,24.25
2022-10-06T08:49:24.653Z,24.70
2022-10-06T08:51:56.190Z,24.49
2022-10-06T08:54:46.156Z,23.93
2022-10-06T08:57:30.013Z,23.60
2022-10-06T09:00:00.348Z,24.83
2022-10-06T09:02:39.125Z,24.65
2022-10-06T09:05:10.270Z,23.99
2022-10-06T09:07:49.648Z,24.90
2022-10-06T09:10:20.172Z,25.31
2022-10-06T09:13:06.595Z,25.29
2022-10-06T09:15:51.388Z,24.59
2022-10-06T09:18:49.352Z,24.15
2022-10-06T09:21:23.448Z,24.72
2022-10-06T09:23:58.046Z,24.09
2022-10-06T09:26:31.326Z,24.77
2022-10-06T09:29:01.606Z,24.68
2022-10-06T09:31:42.208Z,24.91
2022-10-06T09:34:10.091Z,25.42
2022-10-06T09:37:09.016Z,24.89
2022-10-06T09:39:39.149Z,24.79
2022-10-06T09:42:18.800Z,24.16
2022-10-06T09:44:52.352Z,23.34
2022-10-06T09:47:44.946Z,23.02
2022-10-06T09:50:16.349Z,21.98
2022-10-06T09:52:59.257Z,22.57
2022-10-06T09:55:33.821Z,22.73
2022-10-06T09:58:02.461Z,22.83
2022-10-06T10:00:34.860Z,22.00
2022-10-06T10:03:08.770Z,21.84
2022-10-06T10:05:39.111Z,21.71
2022-10-06T10:08:15.672Z,21.84
2022-10-06T10:10:43.180Z,21.96
2022-10-06T10:13:27.084Z,22.90
2022-10-06T10:16:02.718Z,22.85
2022-10-06T10:18:34.617Z,22.83
2022-10-06T10:21:06.363Z,22.98
2022-10-06T10:23:40.756Z,22.87
2022-10-06T10:26:49.062Z,22.78
2022-10-06T10:29:45.303Z,24.36
2022-10-06T10:32:41.305Z,23.79
2022-10-06T10:35:19.317Z,24.53
2022-10-06T10:37:53.741Z,25.30
2022-10-06T10:40:36.278Z,24.95
2022-10-06T10:43:28.933Z,23.99
2022-10-06T10:46:38.071Z,23.66
2022-10-06T10:49:13.602Z,23.50
2022-10-06T10:51:52.044Z,23.60
2022-10-06T10:54:31.307Z,23.10
2022-10-06T10:57:03.544Z,22.74
2022-10-06T10:59:55.235Z,22.93
2022-10-06T11:02:23.622Z,23.15
2022-10-06T11:05:04.477Z,22.65
2022-10-06T11:07:46.960Z,21.94
2022-10-06T11:10:21.142Z,22.51
2022-10-06T11:12:52.119Z,22.73
2022-10-06T11:15:41.488Z,23.32
2022-10-06T11:18:27.110Z,23.45
2022-10-06T11:21:01.367Z,22.91
2022-10-06T11:23:47.015Z,22.36
2022-10-06T11:26:53.375Z,22.19
2022-10-06T11:29:32.909Z,22.21
2022-10-06T11:32:28.736Z,22.12
2022-10-06T11:34:58.905Z,21.97
2022-10-06T11:37:49.929Z,21.82
2022-10-06T11:40:32.710Z,21.71
2022-10-06T11:43:25.280Z,21.86
2022-10-06T11:46:18.669Z,22.38
2022-10-06T11:48:46.756Z,23.05
2022-10-06T11:51:26.625Z,23.56
2022-10-06T11:53:55.565Z,23.87
2022-10-06T11:56:24.003Z,24.10
2022-10-06T11:58:57.761Z,23.88
2022-10-06T12:01:34.789Z,22.83
2022-10-06T12:04:14.427Z,22.48
2022-10-06T12:06:45.138Z,22.36
2022-10-06T12:09:29.237Z,22.24
2022-10-06T12:11:58.927Z,21.84
2022-10-06T12:17:58.294Z,21.57
2022-10-06T12:20:54.947Z,21.72
2022-10-06T12:23:50.267Z,21.43
2022-10-06T12:26:38.360Z,21.44
2022-10-06T12:29:33.687Z,21.17
2022-10-06T12:32:19.168Z,21.13
2022-10-06T12:35:03.100Z,21.64
2022-10-06T12:37:30.849Z,22.09
2022-10-06T12:40:40.348Z,21.79
2022-10-06T12:43:11.712Z,22.19
2022-10-06T12:45:46.417Z,22.37
2022-10-06T12:48:39.293Z,22.46
2022-10-06T12:51:24.197Z,21.92
2022-10-06T12:53:55.326Z,22.08
2022-10-06T12:56:31.687Z,21.82
2022-10-06T12:58:59.690Z,22.41
2022-10-06T13:01:28.245Z,22.34
2022-10-06T13:03:56.242Z,22.74
2022-10-06T13:06:26.881Z,22.78
2022-10-06T13:09:22.663Z,22.88
2022-10-06T13:11:52.555Z,22.54
2022-10-06T13:14:20.117Z,22.33
2022-10-06T13:16:52.591Z,22.72
2022-10-06T13:19:32.326Z,23.25
2022-10-06T13:22:03.940Z,23.52
2022-10-06T13:24:33.723Z,23.39
2022-10-06T13:27:02.959Z,23.23
2022-10-06T13:29:31.780Z,22.98
2022-10-06T13:31:59.315Z,22.70
2022-10-06T13:34:43.281Z,22.31
2022-10-06T13:37:17.586Z,22.08
2022-10-06T13:39:45.193Z,21.95
2022-10-06T13:42:20.347Z,21.55
2022-10-06T13:45:00.523Z,21.23
2022-10-06T13:47:30.185Z,21.22
2022-10-06T13:50:08.026Z,21.15
2022-10-06T13:52:46.890Z,21.22
2022-10-06T13:55:26.005Z,21.14
2022-10-06T13:58:01.969Z,21.03
2022-10-06T14:00:34.498Z,20.98
2022-10-06T14:03:08.092Z,20.83
2022-10-06T14:05:39.810Z,20.76
2022-10-06T14:08:13.118Z,20.75
2022-10-06T14:10:55.776Z,20.71
2022-10-06T14:13:31.107Z,20.56
2022-10-06T14:16:02.400Z,20.39
2022-10-06T14:18:38.796Z,20.25
2022-10-06T14:21:18.441Z,20.22
2022-10-06T14:23:53.930Z,20.14
2022-10-06T14:26:29.788Z,20.10
2022-10-06T14:28:58.272Z,20.07
2022-10-06T14:31:28.692Z,20.10
2022-10-06T14:33:57.383Z,20.01
2022-10-06T14:36:30.203Z,19.88
2022-10-06T14:38:59.145Z,19.86
2022-10-06T14:41:30.625Z,19.82
2022-10-06T14:44:10.897Z,19.79
2022-10-06T14:46:40.063Z,19.67
2022-10-06T14:49:13.383Z,19.57
2022-10-06T14:51:43.109Z,19.41
2022-10-06T14:54:11.729Z,19.36
2022-10-06T14:56:40.663Z,19.30
2022-10-06T14:59:18.062Z,19.16
2022-10-06T15:01:46.397Z,19.01
2022-10-06T15:04:16.692Z,18.81
2022-10-06T15:07:01.822Z,18.59
2022-10-06T15:09:31.069Z,18.46
2022-10-06T15:12:00.215Z,18.32
2022-10-06T15:14:29.581Z,18.13
2022-10-06T15:17:00.316Z,18.04
2022-10-06T15:19:28.505Z,17.96
2022-10-06T15:21:56.250Z,17.83
2022-10-06T15:24:23.794Z,17.76
2022-10-06T15:27:09.094Z,17.69
2022-10-06T15:29:36.607Z,17.63
2022-10-06T15:32:06.522Z,17.57
2022-10-06T15:34:36.819Z,17.59
2022-10-06T15:37:05.166Z,17.65
2022-10-06T15:39:37.104Z,17.68
2022-10-06T15:42:05.565Z,17.74
2022-10-06T15:44:34.899Z,17.66
2022-10-06T15:47:03.042Z,17.60
2022-10-06T15:49:33.016Z,17.49
2022-10-06T15:52:03.278Z,17.38
2022-10-06T15:54:34.830Z,17.31
2022-10-06T15:57:05.621Z,17.16
2022-10-06T15:59:34.489Z,17.06
2022-10-06T16:02:07.802Z,16.97
2022-10-06T16:04:55.456Z,16.86
2022-10-06T16:07:23.023Z,16.73
2022-10-06T16:09:52.235Z,16.62
2022-10-06T16:12:24.851Z,16.51
2022-10-06T16:14:54.890Z,16.42
2022-10-06T16:17:22.454Z,16.32
2022-10-06T16:19:50.105Z,16.27
2022-10-06T16:22:19.408Z,16.20
2022-10-06T16:24:47.008Z,16.15
2022-10-06T16:27:16.247Z,16.11
2022-10-06T16:29:44.201Z,16.09
2022-10-06T16:32:13.988Z,16.04
2022-10-06T16:34:41.525Z,16.04
2022-10-06T16:37:09.057Z,16.01
2022-10-06T16:39:39.247Z,15.99
2022-10-06T16:42:06.821Z,15.95
2022-10-06T16:44:34.385Z,15.91
2022-10-06T16:47:02.012Z,15.84
2022-10-06T16:49:29.602Z,15.81
2022-10-06T16:51:59.554Z,15.79
2022-10-06T16:54:28.775Z,15.76
2022-10-06T16:56:58.153Z,15.72
2022-10-06T16:59:28.845Z,15.69
2022-10-06T17:01:58.752Z,15.66
2022-10-06T17:04:26.683Z,15.62
2022-10-06T17:06:55.326Z,15.62
2022-10-06T17:09:27.478Z,15.64
2022-10-06T17:12:02.268Z,15.66
2022-10-06T17:14:31.933Z,15.67
2022-10-06T17:17:02.248Z,15.67
2022-10-06T17:19:31.162Z,15.70
2022-10-06T17:22:00.977Z,15.73
2022-10-06T17:24:31.265Z,15.71
2022-10-06T17:27:01.731Z,15.67
2022-10-06T17:29:29.358Z,15.66
2022-10-06T17:31:58.811Z,15.63
2022-10-06T17:34:32.620Z,15.60
2022-10-06T17:37:01.979Z,15.55
2022-10-06T17:39:29.549Z,15.49
2022-10-06T17:41:59.728Z,15.45
2022-10-06T17:44:28.743Z,15.41
2022-10-06T17:47:00.181Z,15.34
2022-10-06T17:49:28.569Z,15.28
2022-10-06T17:51:56.492Z,15.26
2022-10-06T17:54:33.566Z,15.22
2022-10-06T17:57:01.065Z,15.16
2022-10-06T17:59:31.697Z,15.12
2022-10-06T18:02:02.604Z,15.11
2022-10-06T18:04:31.107Z,15.09
2022-10-06T18:07:08.463Z,15.09
2022-10-06T18:09:35.982Z,15.10
2022-10-06T18:12:04.225Z,15.09
2022-10-06T18:14:37.303Z,15.10
2022-10-06T18:17:04.869Z,15.07
2022-10-06T18:19:35.122Z,15.03
2022-10-06T18:22:07.934Z,14.99
2022-10-06T18:24:38.877Z,14.95
2022-10-06T18:27:08.093Z,14.90
2022-10-06T18:29:38.099Z,14.82
2022-10-06T18:37:42.466Z,14.63
2022-10-06T18:40:11.185Z,14.58
2022-10-06T18:42:39.513Z,14.53
2022-10-06T18:45:28.693Z,14.47
2022-10-06T18:48:13.971Z,14.41
2022-10-06T18:50:44.925Z,14.37
2022-10-06T18:53:12.503Z,14.31
2022-10-06T18:55:40.002Z,14.30
2022-10-06T18:58:07.500Z,14.27
2022-10-06T19:00:35.007Z,14.26
2022-10-06T19:03:02.474Z,14.23
2022-10-06T19:05:30.998Z,14.22
2022-10-06T19:07:58.524Z,14.20
2022-10-06T19:10:26.018Z,14.19
2022-10-06T19:12:53.840Z,14.17
2022-10-06T19:15:24.336Z,14.17
2022-10-06T19:17:51.851Z,14.14
2022-10-06T19:20:19.406Z,14.13
2022-10-06T19:22:47.879Z,14.09
2022-10-06T19:25:18.609Z,14.06
2022-10-06T19:27:46.374Z,14.02
2022-10-06T19:30:15.895Z,14.00
2022-10-06T19:32:43.653Z,13.99
2022-10-06T19:35:13.675Z,13.96
2022-10-06T19:37:41.634Z,13.96
2022-10-06T19:40:11.311Z,13.96
2022-10-06T19:42:50.988Z,13.94
2022-10-06T19:45:20.663Z,13.97
2022-10-06T19:47:48.231Z,13.97
2022-10-06T19:50:17.651Z,13.96
2022-10-06T19:52:47.521Z,13.98
2022-10-06T19:55:20.152Z,13.96
2022-10-06T19:57:47.663Z,13.95
2022-10-06T20:00:16.185Z,13.94
2022-10-06T20:02:44.800Z,13.94
2022-10-06T20:05:17.478Z,13.90
2022-10-06T20:07:47.526Z,13.86
2022-10-06T20:10:17.757Z,13.85
2022-10-06T20:12:45.286Z,13.86
2022-10-06T20:15:13.008Z,13.81
2022-10-06T20:17:42.363Z,13.79
2022-10-06T20:20:13.753Z,13.77
2022-10-06T20:22:41.304Z,13.73
2022-10-06T20:25:11.277Z,13.66
2022-10-06T20:27:38.763Z,13.60
2022-10-06T20:30:06.855Z,13.50
2022-10-06T20:32:34.798Z,13.46
2022-10-06T20:35:05.012Z,13.39
2022-10-06T20:37:35.071Z,13.33
2022-10-06T20:40:19.822Z,13.25
2022-10-06T20:42:49.460Z,13.19
2022-10-06T20:45:17.130Z,13.12
2022-10-06T20:47:45.586Z,13.04
2022-10-06T20:50:14.011Z,13.00
2022-10-06T20:52:41.617Z,12.92
2022-10-06T20:55:09.238Z,12.87
2022-10-06T20:57:36.872Z,12.83
2022-10-06T21:00:05.087Z,12.81
2022-10-06T21:02:35.193Z,12.79
2022-10-06T21:05:02.753Z,12.78
2022-10-06T21:07:30.229Z,12.78
2022-10-06T21:09:57.716Z,12.75
2022-10-06T21:12:25.253Z,12.74
2022-10-06T21:14:52.743Z,12.73
2022-10-06T21:17:20.247Z,12.77
2022-10-06T21:19:49.065Z,12.76
2022-10-06T21:22:16.764Z,12.74
2022-10-06T21:24:44.234Z,12.73
2022-10-06T21:27:11.675Z,12.72
2022-10-06T21:29:39.189Z,12.67
2022-10-06T21:32:06.644Z,12.68
2022-10-06T21:34:34.105Z,12.68
2022-10-06T21:37:01.564Z,12.65
2022-10-06T21:39:29.045Z,12.61
2022-10-06T21:41:56.515Z,12.60
2022-10-06T21:44:24.074Z,12.57
2022-10-06T21:46:52.691Z,12.55
2022-10-06T21:49:25.329Z,12.52
2022-10-06T21:51:54.968Z,12.49
2022-10-06T21:54:23.975Z,12.49
2022-10-06T21:56:52.201Z,12.43
2022-10-06T21:59:22.049Z,12.43
2022-10-06T22:01:52.018Z,12.40
2022-10-06T22:04:19.737Z,12.35
2022-10-06T22:06:50.017Z,12.35
2022-10-06T22:09:22.538Z,12.34
2022-10-06T22:11:52.309Z,12.33
2022-10-06T22:14:22.773Z,12.33
2022-10-06T22:16:52.785Z,12.33
2022-10-06T22:19:20.415Z,12.34
2022-10-06T22:21:49.458Z,12.35
2022-10-06T22:24:20.191Z,12.39
2022-10-06T22:26:48.372Z,12.42
2022-10-06T22:29:18.052Z,12.43
2022-10-06T22:31:48.981Z,12.45
2022-10-06T22:34:19.291Z,12.47
2022-10-06T22:36:47.109Z,12.50
2022-10-06T22:39:14.640Z,12.55
2022-10-06T22:41:42.311Z,12.57
2022-10-06T22:44:09.836Z,12.61
2022-10-06T22:46:39.681Z,12.65
2022-10-06T22:49:07.542Z,12.64
2022-10-06T22:51:35.508Z,12.66
2022-10-06T22:54:03.119Z,12.64
2022-10-06T22:56:33.036Z,12.63
2022-10-06T22:59:02.918Z,12.59
2022-10-06T23:01:30.770Z,12.57
2022-10-06T23:03:58.842Z,12.55
2022-10-06T23:06:26.701Z,12.53
2022-10-06T23:08:54.216Z,12.59
2022-10-06T23:11:23.324Z,12.63
2022-10-06T23:13:52.909Z,12.73
2022-10-06T23:16:21.759Z,12.71
2022-10-06T23:18:49.850Z,12.75
2022-10-06T23:21:23.927Z,12.72
2022-10-06T23:23:57.352Z,12.67
2022-10-06T23:26:25.340Z,12.64
2022-10-06T23:28:55.663Z,12.65
2022-10-06T23:31:23.942Z,12.62
2022-10-06T23:33:52.159Z,12.65
2022-10-06T23:36:19.686Z,12.61
2022-10-06T23:38:48.220Z,12.57
2022-10-06T23:41:16.226Z,12.55
2022-10-06T23:43:43.984Z,12.50
2022-10-06T23:46:11.912Z,12.47
2022-10-06T23:48:39.701Z,12.45
2022-10-06T23:51:10.323Z,12.39
2022-10-06T23:53:37.868Z,12.40
2022-10-06T23:56:06.108Z,12.37
2022-10-06T23:58:33.835Z,12.43
